Saint-Gerard, Canada
Current Conditions -  °F | °C
As of 9:00 AM on Friday 24 Oct 2014 (Local Time) from CYSC Reporting Station
NA  
Wind Chill: 40°   Ceiling: NA
Heat Index: 43°   Visibility: NA
Dew Point: 41°   Wind: 5mph
Humidity: 93%   Direction: 10°N
Pressure: 29.81"   Gusts: NA
Location:  45.77°N, 71.42°W
Report Text: CYSC 241300Z AUTO 01004KT 06/05 A2981 RMK CLD MISG WX MISG VIS MISG PCPN MISG SLP102
Loading
Personal Weather Stations






























Interactive Weather Map
Tropical Storm Tracking
New forecast layout! Learn more

10-Day Weather Forecast

Advertisements
Track Severe Weather on mobile